sensor_id;sensor_type;location;lat;lon;timestamp;P1;durP1;ratioP1;P2;durP2;ratioP2
46322;SDS011;32044;52.386;13.278;2024-01-16T00:01:20;5.72;;;2.00;;
46322;SDS011;32044;52.386;13.278;2024-01-16T00:03:47;6.78;;;1.85;;
46322;SDS011;32044;52.386;13.278;2024-01-16T00:06:15;10.18;;;2.67;;
46322;SDS011;32044;52.386;13.278;2024-01-16T00:08:42;3.58;;;1.63;;
46322;SDS011;32044;52.386;13.278;2024-01-16T00:11:10;3.88;;;1.60;;
46322;SDS011;32044;52.386;13.278;2024-01-16T00:13:38;6.15;;;1.95;;
46322;SDS011;32044;52.386;13.278;2024-01-16T00:16:05;4.53;;;1.75;;
46322;SDS011;32044;52.386;13.278;2024-01-16T00:18:34;7.00;;;1.80;;
46322;SDS011;32044;52.386;13.278;2024-01-16T00:21:02;9.00;;;1.95;;
46322;SDS011;32044;52.386;13.278;2024-01-16T00:23:29;5.85;;;1.77;;
46322;SDS011;32044;52.386;13.278;2024-01-16T00:25:59;7.70;;;1.80;;
46322;SDS011;32044;52.386;13.278;2024-01-16T00:28:27;4.20;;;1.77;;
46322;SDS011;32044;52.386;13.278;2024-01-16T00:30:54;3.58;;;1.60;;
46322;SDS011;32044;52.386;13.278;2024-01-16T00:33:22;6.07;;;1.95;;
46322;SDS011;32044;52.386;13.278;2024-01-16T00:35:51;4.55;;;2.00;;
46322;SDS011;32044;52.386;13.278;2024-01-16T00:38:18;6.47;;;2.20;;
46322;SDS011;32044;52.386;13.278;2024-01-16T00:40:46;8.00;;;1.98;;
46322;SDS011;32044;52.386;13.278;2024-01-16T00:43:13;12.43;;;2.00;;
46322;SDS011;32044;52.386;13.278;2024-01-16T00:45:41;6.78;;;2.00;;
46322;SDS011;32044;52.386;13.278;2024-01-16T00:48:09;4.65;;;1.77;;
46322;SDS011;32044;52.386;13.278;2024-01-16T00:50:40;11.35;;;2.17;;
46322;SDS011;32044;52.386;13.278;2024-01-16T00:53:09;10.48;;;2.30;;
46322;SDS011;32044;52.386;13.278;2024-01-16T00:55:45;5.90;;;1.80;;
46322;SDS011;32044;52.386;13.278;2024-01-16T00:58:13;8.38;;;1.98;;
46322;SDS011;32044;52.386;13.278;2024-01-16T01:00:41;7.18;;;2.15;;
46322;SDS011;32044;52.386;13.278;2024-01-16T01:03:08;5.80;;;2.25;;
46322;SDS011;32044;52.386;13.278;2024-01-16T01:05:36;11.80;;;2.50;;
46322;SDS011;32044;52.386;13.278;2024-01-16T01:08:04;9.43;;;2.92;;
46322;SDS011;32044;52.386;13.278;2024-01-16T01:10:33;6.00;;;2.35;;
46322;SDS011;32044;52.386;13.278;2024-01-16T01:13:01;7.10;;;1.98;;
46322;SDS011;32044;52.386;13.278;2024-01-16T01:15:29;8.02;;;2.20;;
46322;SDS011;32044;52.386;13.278;2024-01-16T01:17:56;7.20;;;2.70;;
46322;SDS011;32044;52.386;13.278;2024-01-16T01:20:24;7.43;;;2.42;;
46322;SDS011;32044;52.386;13.278;2024-01-16T01:22:52;7.13;;;2.92;;
46322;SDS011;32044;52.386;13.278;2024-01-16T01:25:19;5.88;;;2.53;;
46322;SDS011;32044;52.386;13.278;2024-01-16T01:27:49;11.43;;;2.25;;
46322;SDS011;32044;52.386;13.278;2024-01-16T01:30:17;7.50;;;2.67;;
46322;SDS011;32044;52.386;13.278;2024-01-16T01:32:44;8.00;;;2.30;;
46322;SDS011;32044;52.386;13.278;2024-01-16T01:35:12;10.00;;;2.55;;
46322;SDS011;32044;52.386;13.278;2024-01-16T01:37:40;6.80;;;2.25;;
46322;SDS011;32044;52.386;13.278;2024-01-16T01:40:08;6.35;;;2.72;;
46322;SDS011;32044;52.386;13.278;2024-01-16T01:42:40;7.85;;;2.58;;
46322;SDS011;32044;52.386;13.278;2024-01-16T01:45:09;6.65;;;2.60;;
46322;SDS011;32044;52.386;13.278;2024-01-16T01:47:37;8.40;;;2.50;;
46322;SDS011;32044;52.386;13.278;2024-01-16T01:50:06;7.45;;;2.30;;
46322;SDS011;32044;52.386;13.278;2024-01-16T01:52:34;4.95;;;2.35;;
46322;SDS011;32044;52.386;13.278;2024-01-16T01:55:02;8.77;;;2.03;;
46322;SDS011;32044;52.386;13.278;2024-01-16T01:57:32;7.15;;;2.00;;
46322;SDS011;32044;52.386;13.278;2024-01-16T02:00:00;5.18;;;1.95;;
46322;SDS011;32044;52.386;13.278;2024-01-16T02:02:29;10.15;;;1.70;;
46322;SDS011;32044;52.386;13.278;2024-01-16T02:04:57;3.03;;;1.80;;
46322;SDS011;32044;52.386;13.278;2024-01-16T02:07:25;7.10;;;2.08;;
46322;SDS011;32044;52.386;13.278;2024-01-16T02:09:52;4.68;;;1.95;;
46322;SDS011;32044;52.386;13.278;2024-01-16T02:12:21;4.07;;;1.88;;
46322;SDS011;32044;52.386;13.278;2024-01-16T02:14:51;3.67;;;1.77;;
46322;SDS011;32044;52.386;13.278;2024-01-16T02:17:18;3.10;;;1.98;;
46322;SDS011;32044;52.386;13.278;2024-01-16T02:19:47;7.55;;;1.90;;
46322;SDS011;32044;52.386;13.278;2024-01-16T02:22:15;4.28;;;1.70;;
46322;SDS011;32044;52.386;13.278;2024-01-16T02:24:49;8.75;;;2.30;;
46322;SDS011;32044;52.386;13.278;2024-01-16T02:27:16;4.18;;;1.80;;
46322;SDS011;32044;52.386;13.278;2024-01-16T02:29:44;7.05;;;1.70;;
46322;SDS011;32044;52.386;13.278;2024-01-16T02:32:12;3.45;;;1.95;;
46322;SDS011;32044;52.386;13.278;2024-01-16T02:34:40;6.40;;;2.38;;
46322;SDS011;32044;52.386;13.278;2024-01-16T02:37:09;7.10;;;1.90;;
46322;SDS011;32044;52.386;13.278;2024-01-16T02:39:36;4.43;;;1.80;;
46322;SDS011;32044;52.386;13.278;2024-01-16T02:42:05;6.22;;;2.25;;
46322;SDS011;32044;52.386;13.278;2024-01-16T02:44:33;2.92;;;1.90;;
46322;SDS011;32044;52.386;13.278;2024-01-16T02:47:00;4.50;;;1.90;;
46322;SDS011;32044;52.386;13.278;2024-01-16T02:49:28;5.25;;;1.98;;
46322;SDS011;32044;52.386;13.278;2024-01-16T02:51:58;3.22;;;1.95;;
46322;SDS011;32044;52.386;13.278;2024-01-16T02:54:26;3.10;;;1.85;;
46322;SDS011;32044;52.386;13.278;2024-01-16T02:56:53;5.85;;;2.50;;
46322;SDS011;32044;52.386;13.278;2024-01-16T02:59:22;4.57;;;2.58;;
46322;SDS011;32044;52.386;13.278;2024-01-16T03:01:50;7.13;;;2.20;;
46322;SDS011;32044;52.386;13.278;2024-01-16T03:04:17;5.22;;;2.33;;
46322;SDS011;32044;52.386;13.278;2024-01-16T03:06:45;6.22;;;1.90;;
46322;SDS011;32044;52.386;13.278;2024-01-16T03:09:13;2.63;;;1.70;;
46322;SDS011;32044;52.386;13.278;2024-01-16T03:11:40;3.83;;;2.15;;
46322;SDS011;32044;52.386;13.278;2024-01-16T03:14:08;4.38;;;2.10;;
46322;SDS011;32044;52.386;13.278;2024-01-16T03:16:37;5.35;;;2.70;;
46322;SDS011;32044;52.386;13.278;2024-01-16T03:19:04;6.35;;;2.05;;
46322;SDS011;32044;52.386;13.278;2024-01-16T03:21:32;7.03;;;2.47;;
46322;SDS011;32044;52.386;13.278;2024-01-16T03:24:00;7.07;;;2.40;;
46322;SDS011;32044;52.386;13.278;2024-01-16T03:26:27;4.97;;;2.22;;
46322;SDS011;32044;52.386;13.278;2024-01-16T03:28:55;4.68;;;2.22;;
46322;SDS011;32044;52.386;13.278;2024-01-16T03:31:22;4.35;;;2.08;;
46322;SDS011;32044;52.386;13.278;2024-01-16T03:33:51;5.45;;;2.25;;
46322;SDS011;32044;52.386;13.278;2024-01-16T03:36:19;2.75;;;1.77;;
46322;SDS011;32044;52.386;13.278;2024-01-16T03:38:46;7.75;;;2.30;;
46322;SDS011;32044;52.386;13.278;2024-01-16T03:41:14;7.53;;;2.63;;
46322;SDS011;32044;52.386;13.278;2024-01-16T03:43:42;6.13;;;2.17;;
46322;SDS011;32044;52.386;13.278;2024-01-16T03:46:10;3.00;;;1.90;;
46322;SDS011;32044;52.386;13.278;2024-01-16T03:48:37;5.57;;;2.00;;
46322;SDS011;32044;52.386;13.278;2024-01-16T03:51:07;6.13;;;1.88;;
46322;SDS011;32044;52.386;13.278;2024-01-16T03:53:34;6.70;;;1.80;;
46322;SDS011;32044;52.386;13.278;2024-01-16T03:56:02;8.05;;;2.10;;
46322;SDS011;32044;52.386;13.278;2024-01-16T03:58:30;6.50;;;2.53;;
46322;SDS011;32044;52.386;13.278;2024-01-16T04:00:57;6.05;;;2.38;;
46322;SDS011;32044;52.386;13.278;2024-01-16T04:03:25;7.45;;;2.88;;
46322;SDS011;32044;52.386;13.278;2024-01-16T04:05:53;4.00;;;2.30;;
46322;SDS011;32044;52.386;13.278;2024-01-16T04:08:22;6.82;;;2.20;;
46322;SDS011;32044;52.386;13.278;2024-01-16T04:10:49;7.15;;;2.38;;
46322;SDS011;32044;52.386;13.278;2024-01-16T04:13:17;9.43;;;3.00;;
46322;SDS011;32044;52.386;13.278;2024-01-16T04:15:44;7.43;;;3.28;;
46322;SDS011;32044;52.386;13.278;2024-01-16T04:18:12;7.55;;;3.60;;
46322;SDS011;32044;52.386;13.278;2024-01-16T04:20:40;9.18;;;3.17;;
46322;SDS011;32044;52.386;13.278;2024-01-16T04:23:07;12.18;;;4.78;;
46322;SDS011;32044;52.386;13.278;2024-01-16T04:25:36;13.05;;;4.60;;
46322;SDS011;32044;52.386;13.278;2024-01-16T04:28:04;15.95;;;5.68;;
46322;SDS011;32044;52.386;13.278;2024-01-16T04:30:31;19.73;;;7.57;;
46322;SDS011;32044;52.386;13.278;2024-01-16T04:32:59;19.52;;;6.57;;
46322;SDS011;32044;52.386;13.278;2024-01-16T04:35:27;17.48;;;6.72;;
46322;SDS011;32044;52.386;13.278;2024-01-16T04:37:54;18.65;;;5.65;;
46322;SDS011;32044;52.386;13.278;2024-01-16T04:40:22;14.68;;;4.95;;
46322;SDS011;32044;52.386;13.278;2024-01-16T04:42:51;13.18;;;4.47;;
46322;SDS011;32044;52.386;13.278;2024-01-16T04:45:18;9.23;;;3.53;;
46322;SDS011;32044;52.386;13.278;2024-01-16T04:47:46;5.10;;;2.95;;
46322;SDS011;32044;52.386;13.278;2024-01-16T04:50:14;8.18;;;3.47;;
46322;SDS011;32044;52.386;13.278;2024-01-16T04:52:41;6.00;;;2.90;;
46322;SDS011;32044;52.386;13.278;2024-01-16T04:55:09;7.93;;;3.55;;
46322;SDS011;32044;52.386;13.278;2024-01-16T04:57:37;9.23;;;3.67;;
46322;SDS011;32044;52.386;13.278;2024-01-16T05:00:07;8.35;;;3.63;;
46322;SDS011;32044;52.386;13.278;2024-01-16T05:02:34;15.20;;;5.88;;
46322;SDS011;32044;52.386;13.278;2024-01-16T05:05:02;12.27;;;5.53;;
46322;SDS011;32044;52.386;13.278;2024-01-16T05:07:30;10.13;;;4.65;;
46322;SDS011;32044;52.386;13.278;2024-01-16T05:09:57;9.90;;;4.20;;
46322;SDS011;32044;52.386;13.278;2024-01-16T05:12:25;15.45;;;4.90;;
46322;SDS011;32044;52.386;13.278;2024-01-16T05:14:53;17.15;;;5.45;;
46322;SDS011;32044;52.386;13.278;2024-01-16T05:17:21;10.48;;;4.18;;
46322;SDS011;32044;52.386;13.278;2024-01-16T05:19:49;8.55;;;4.18;;
46322;SDS011;32044;52.386;13.278;2024-01-16T05:22:17;8.85;;;4.20;;
46322;SDS011;32044;52.386;13.278;2024-01-16T05:24:44;7.93;;;4.13;;
46322;SDS011;32044;52.386;13.278;2024-01-16T05:27:12;8.13;;;3.60;;
46322;SDS011;32044;52.386;13.278;2024-01-16T05:29:40;8.10;;;3.67;;
46322;SDS011;32044;52.386;13.278;2024-01-16T05:32:10;9.90;;;4.82;;
46322;SDS011;32044;52.386;13.278;2024-01-16T05:34:39;8.57;;;3.55;;
46322;SDS011;32044;52.386;13.278;2024-01-16T05:37:07;13.80;;;4.05;;
46322;SDS011;32044;52.386;13.278;2024-01-16T05:39:34;7.28;;;3.85;;
46322;SDS011;32044;52.386;13.278;2024-01-16T05:42:03;9.18;;;4.10;;
46322;SDS011;32044;52.386;13.278;2024-01-16T05:44:31;6.65;;;3.80;;
46322;SDS011;32044;52.386;13.278;2024-01-16T05:46:59;8.55;;;3.50;;
46322;SDS011;32044;52.386;13.278;2024-01-16T05:49:26;5.93;;;3.63;;
46322;SDS011;32044;52.386;13.278;2024-01-16T05:51:55;4.88;;;3.42;;
46322;SDS011;32044;52.386;13.278;2024-01-16T05:54:23;8.65;;;4.38;;
46322;SDS011;32044;52.386;13.278;2024-01-16T05:56:50;8.80;;;4.55;;
46322;SDS011;32044;52.386;13.278;2024-01-16T05:59:18;12.25;;;4.85;;
46322;SDS011;32044;52.386;13.278;2024-01-16T06:01:45;7.53;;;4.70;;
46322;SDS011;32044;52.386;13.278;2024-01-16T06:04:13;8.50;;;4.20;;
46322;SDS011;32044;52.386;13.278;2024-01-16T06:06:41;8.48;;;4.32;;
46322;SDS011;32044;52.386;13.278;2024-01-16T06:09:13;8.10;;;4.18;;
46322;SDS011;32044;52.386;13.278;2024-01-16T06:11:40;8.85;;;4.22;;
46322;SDS011;32044;52.386;13.278;2024-01-16T06:14:08;7.82;;;4.25;;
46322;SDS011;32044;52.386;13.278;2024-01-16T06:16:38;9.45;;;5.10;;
46322;SDS011;32044;52.386;13.278;2024-01-16T06:19:05;6.05;;;3.80;;
46322;SDS011;32044;52.386;13.278;2024-01-16T06:21:34;8.02;;;4.10;;
46322;SDS011;32044;52.386;13.278;2024-01-16T06:24:02;7.35;;;3.70;;
46322;SDS011;32044;52.386;13.278;2024-01-16T06:26:31;10.30;;;5.05;;
46322;SDS011;32044;52.386;13.278;2024-01-16T06:28:59;11.30;;;5.30;;
46322;SDS011;32044;52.386;13.278;2024-01-16T06:31:26;9.65;;;5.95;;
46322;SDS011;32044;52.386;13.278;2024-01-16T06:33:54;15.55;;;6.68;;
46322;SDS011;32044;52.386;13.278;2024-01-16T06:36:22;11.88;;;6.25;;
46322;SDS011;32044;52.386;13.278;2024-01-16T06:38:49;10.18;;;5.88;;
46322;SDS011;32044;52.386;13.278;2024-01-16T06:41:17;16.05;;;6.07;;
46322;SDS011;32044;52.386;13.278;2024-01-16T06:43:46;12.35;;;6.00;;
46322;SDS011;32044;52.386;13.278;2024-01-16T06:46:14;10.15;;;5.45;;
46322;SDS011;32044;52.386;13.278;2024-01-16T06:48:41;9.48;;;5.78;;
46322;SDS011;32044;52.386;13.278;2024-01-16T06:51:09;13.90;;;6.40;;
46322;SDS011;32044;52.386;13.278;2024-01-16T06:53:40;16.10;;;7.00;;
46322;SDS011;32044;52.386;13.278;2024-01-16T06:56:07;14.93;;;7.85;;
46322;SDS011;32044;52.386;13.278;2024-01-16T06:58:35;16.42;;;8.77;;
46322;SDS011;32044;52.386;13.278;2024-01-16T07:01:04;16.13;;;8.45;;
46322;SDS011;32044;52.386;13.278;2024-01-16T07:03:32;16.02;;;8.40;;
46322;SDS011;32044;52.386;13.278;2024-01-16T07:06:00;14.05;;;8.38;;
46322;SDS011;32044;52.386;13.278;2024-01-16T07:08:27;20.23;;;8.80;;
46322;SDS011;32044;52.386;13.278;2024-01-16T07:10:55;15.32;;;8.10;;
46322;SDS011;32044;52.386;13.278;2024-01-16T07:13:23;14.35;;;8.57;;
46322;SDS011;32044;52.386;13.278;2024-01-16T07:15:51;18.20;;;9.98;;
46322;SDS011;32044;52.386;13.278;2024-01-16T07:18:20;18.52;;;8.75;;
46322;SDS011;32044;52.386;13.278;2024-01-16T07:20:47;19.77;;;8.75;;
46322;SDS011;32044;52.386;13.278;2024-01-16T07:23:15;15.90;;;8.60;;
46322;SDS011;32044;52.386;13.278;2024-01-16T07:25:43;12.60;;;7.68;;
46322;SDS011;32044;52.386;13.278;2024-01-16T07:28:10;15.13;;;8.40;;
46322;SDS011;32044;52.386;13.278;2024-01-16T07:30:38;13.82;;;7.72;;
46322;SDS011;32044;52.386;13.278;2024-01-16T07:33:06;15.65;;;7.97;;
46322;SDS011;32044;52.386;13.278;2024-01-16T07:35:35;16.40;;;7.85;;
46322;SDS011;32044;52.386;13.278;2024-01-16T07:38:03;14.02;;;8.35;;
46322;SDS011;32044;52.386;13.278;2024-01-16T07:40:31;13.88;;;8.15;;
46322;SDS011;32044;52.386;13.278;2024-01-16T07:42:59;18.25;;;8.85;;
46322;SDS011;32044;52.386;13.278;2024-01-16T07:45:26;22.85;;;11.77;;
46322;SDS011;32044;52.386;13.278;2024-01-16T07:47:54;59.25;;;33.63;;
46322;SDS011;32044;52.386;13.278;2024-01-16T07:50:21;29.08;;;12.00;;
46322;SDS011;32044;52.386;13.278;2024-01-16T07:52:50;22.05;;;9.90;;
46322;SDS011;32044;52.386;13.278;2024-01-16T07:55:18;18.10;;;9.95;;
46322;SDS011;32044;52.386;13.278;2024-01-16T07:57:50;14.90;;;10.02;;
46322;SDS011;32044;52.386;13.278;2024-01-16T08:00:18;23.70;;;10.00;;
46322;SDS011;32044;52.386;13.278;2024-01-16T08:02:46;18.73;;;10.50;;
46322;SDS011;32044;52.386;13.278;2024-01-16T08:05:13;22.33;;;11.63;;
46322;SDS011;32044;52.386;13.278;2024-01-16T08:07:42;19.15;;;13.13;;
46322;SDS011;32044;52.386;13.278;2024-01-16T08:10:11;29.40;;;15.15;;
46322;SDS011;32044;52.386;13.278;2024-01-16T08:12:42;29.10;;;13.55;;
46322;SDS011;32044;52.386;13.278;2024-01-16T08:15:09;26.10;;;12.63;;
46322;SDS011;32044;52.386;13.278;2024-01-16T08:17:37;23.05;;;13.18;;
46322;SDS011;32044;52.386;13.278;2024-01-16T08:20:06;19.52;;;12.70;;
46322;SDS011;32044;52.386;13.278;2024-01-16T08:22:36;12.97;;;7.10;;
46322;SDS011;32044;52.386;13.278;2024-01-16T08:25:04;20.50;;;9.65;;
46322;SDS011;32044;52.386;13.278;2024-01-16T08:27:33;17.42;;;9.60;;
46322;SDS011;32044;52.386;13.278;2024-01-16T08:30:03;21.75;;;9.90;;
46322;SDS011;32044;52.386;13.278;2024-01-16T08:32:33;22.17;;;10.23;;
46322;SDS011;32044;52.386;13.278;2024-01-16T08:35:01;19.48;;;11.80;;
46322;SDS011;32044;52.386;13.278;2024-01-16T08:37:29;23.48;;;15.35;;
46322;SDS011;32044;52.386;13.278;2024-01-16T08:39:56;20.35;;;13.10;;
46322;SDS011;32044;52.386;13.278;2024-01-16T08:42:24;19.73;;;11.75;;
46322;SDS011;32044;52.386;13.278;2024-01-16T08:44:53;18.83;;;12.55;;
46322;SDS011;32044;52.386;13.278;2024-01-16T08:47:20;17.38;;;10.48;;
46322;SDS011;32044;52.386;13.278;2024-01-16T08:49:48;15.40;;;8.27;;
46322;SDS011;32044;52.386;13.278;2024-01-16T08:52:16;13.90;;;7.93;;
46322;SDS011;32044;52.386;13.278;2024-01-16T08:54:43;14.70;;;8.40;;
46322;SDS011;32044;52.386;13.278;2024-01-16T08:57:11;13.48;;;8.35;;
46322;SDS011;32044;52.386;13.278;2024-01-16T09:02:12;17.70;;;8.68;;
46322;SDS011;32044;52.386;13.278;2024-01-16T09:04:39;18.08;;;9.00;;
46322;SDS011;32044;52.386;13.278;2024-01-16T09:07:07;15.73;;;9.23;;
46322;SDS011;32044;52.386;13.278;2024-01-16T09:09:35;17.67;;;8.77;;
46322;SDS011;32044;52.386;13.278;2024-01-16T09:12:03;22.00;;;9.43;;
46322;SDS011;32044;52.386;13.278;2024-01-16T09:14:31;14.82;;;9.32;;
46322;SDS011;32044;52.386;13.278;2024-01-16T09:16:59;18.98;;;10.10;;
46322;SDS011;32044;52.386;13.278;2024-01-16T09:19:27;16.35;;;9.63;;
46322;SDS011;32044;52.386;13.278;2024-01-16T09:21:55;18.45;;;9.25;;
46322;SDS011;32044;52.386;13.278;2024-01-16T09:24:23;18.17;;;9.20;;
46322;SDS011;32044;52.386;13.278;2024-01-16T09:26:50;17.63;;;8.73;;
46322;SDS011;32044;52.386;13.278;2024-01-16T09:29:18;17.85;;;8.32;;
46322;SDS011;32044;52.386;13.278;2024-01-16T09:31:47;14.98;;;7.50;;
46322;SDS011;32044;52.386;13.278;2024-01-16T09:34:14;13.70;;;7.50;;
46322;SDS011;32044;52.386;13.278;2024-01-16T09:36:44;10.90;;;7.45;;
46322;SDS011;32044;52.386;13.278;2024-01-16T09:39:12;14.98;;;6.65;;
46322;SDS011;32044;52.386;13.278;2024-01-16T09:41:44;10.15;;;5.90;;
46322;SDS011;32044;52.386;13.278;2024-01-16T09:44:12;11.20;;;5.70;;
46322;SDS011;32044;52.386;13.278;2024-01-16T09:46:39;12.85;;;5.57;;
46322;SDS011;32044;52.386;13.278;2024-01-16T09:49:07;16.33;;;6.00;;
46322;SDS011;32044;52.386;13.278;2024-01-16T09:51:35;12.48;;;5.70;;
46322;SDS011;32044;52.386;13.278;2024-01-16T09:54:04;9.77;;;5.85;;
46322;SDS011;32044;52.386;13.278;2024-01-16T09:56:35;13.80;;;5.72;;
46322;SDS011;32044;52.386;13.278;2024-01-16T09:59:09;10.95;;;5.57;;
46322;SDS011;32044;52.386;13.278;2024-01-16T10:01:37;10.25;;;4.53;;
46322;SDS011;32044;52.386;13.278;2024-01-16T10:04:05;9.90;;;4.70;;
46322;SDS011;32044;52.386;13.278;2024-01-16T10:06:32;11.27;;;4.60;;
46322;SDS011;32044;52.386;13.278;2024-01-16T10:09:01;9.77;;;4.22;;
46322;SDS011;32044;52.386;13.278;2024-01-16T10:11:30;9.48;;;4.30;;
46322;SDS011;32044;52.386;13.278;2024-01-16T10:13:58;12.60;;;4.63;;
46322;SDS011;32044;52.386;13.278;2024-01-16T10:16:35;6.82;;;3.70;;
46322;SDS011;32044;52.386;13.278;2024-01-16T10:19:23;11.02;;;4.13;;
46322;SDS011;32044;52.386;13.278;2024-01-16T10:22:08;6.50;;;3.85;;
46322;SDS011;32044;52.386;13.278;2024-01-16T10:24:35;11.43;;;3.38;;
46322;SDS011;32044;52.386;13.278;2024-01-16T10:27:04;10.10;;;3.70;;
46322;SDS011;32044;52.386;13.278;2024-01-16T10:29:32;8.30;;;3.58;;
46322;SDS011;32044;52.386;13.278;2024-01-16T10:32:15;9.23;;;3.97;;
46322;SDS011;32044;52.386;13.278;2024-01-16T10:35:01;8.25;;;3.28;;
46322;SDS011;32044;52.386;13.278;2024-01-16T10:37:31;8.20;;;3.63;;
46322;SDS011;32044;52.386;13.278;2024-01-16T10:39:59;6.18;;;3.10;;
46322;SDS011;32044;52.386;13.278;2024-01-16T10:42:28;9.88;;;3.40;;
46322;SDS011;32044;52.386;13.278;2024-01-16T10:44:55;5.35;;;2.75;;
46322;SDS011;32044;52.386;13.278;2024-01-16T10:47:23;10.10;;;2.97;;
46322;SDS011;32044;52.386;13.278;2024-01-16T10:49:51;10.23;;;2.92;;
46322;SDS011;32044;52.386;13.278;2024-01-16T10:52:18;8.52;;;2.60;;
46322;SDS011;32044;52.386;13.278;2024-01-16T10:54:49;10.20;;;2.95;;
46322;SDS011;32044;52.386;13.278;2024-01-16T10:57:17;12.05;;;3.10;;
46322;SDS011;32044;52.386;13.278;2024-01-16T10:59:48;10.82;;;2.67;;
46322;SDS011;32044;52.386;13.278;2024-01-16T11:02:19;7.50;;;3.63;;
46322;SDS011;32044;52.386;13.278;2024-01-16T11:04:47;6.10;;;3.22;;
46322;SDS011;32044;52.386;13.278;2024-01-16T11:07:15;13.93;;;3.30;;
46322;SDS011;32044;52.386;13.278;2024-01-16T11:09:44;13.88;;;3.67;;
46322;SDS011;32044;52.386;13.278;2024-01-16T11:12:12;10.07;;;3.55;;
46322;SDS011;32044;52.386;13.278;2024-01-16T11:14:43;9.95;;;3.50;;
46322;SDS011;32044;52.386;13.278;2024-01-16T11:17:14;8.85;;;3.75;;
46322;SDS011;32044;52.386;13.278;2024-01-16T11:19:45;11.77;;;4.45;;
46322;SDS011;32044;52.386;13.278;2024-01-16T11:22:34;10.40;;;4.10;;
46322;SDS011;32044;52.386;13.278;2024-01-16T11:25:10;14.60;;;4.72;;
46322;SDS011;32044;52.386;13.278;2024-01-16T11:27:38;15.45;;;4.28;;
46322;SDS011;32044;52.386;13.278;2024-01-16T11:30:06;10.15;;;4.60;;
46322;SDS011;32044;52.386;13.278;2024-01-16T11:32:37;11.48;;;4.53;;
46322;SDS011;32044;52.386;13.278;2024-01-16T11:35:07;10.77;;;4.53;;
46322;SDS011;32044;52.386;13.278;2024-01-16T11:37:35;16.40;;;4.72;;
46322;SDS011;32044;52.386;13.278;2024-01-16T11:40:20;8.77;;;5.10;;
46322;SDS011;32044;52.386;13.278;2024-01-16T11:42:48;10.98;;;4.78;;
46322;SDS011;32044;52.386;13.278;2024-01-16T11:48:17;17.25;;;5.50;;
46322;SDS011;32044;52.386;13.278;2024-01-16T11:50:46;13.63;;;5.22;;
46322;SDS011;32044;52.386;13.278;2024-01-16T11:59:27;14.73;;;4.30;;
46322;SDS011;32044;52.386;13.278;2024-01-16T12:02:24;17.05;;;4.97;;
46322;SDS011;32044;52.386;13.278;2024-01-16T12:04:57;13.23;;;5.05;;
46322;SDS011;32044;52.386;13.278;2024-01-16T12:07:30;7.32;;;4.65;;
46322;SDS011;32044;52.386;13.278;2024-01-16T12:09:58;16.73;;;4.80;;
46322;SDS011;32044;52.386;13.278;2024-01-16T12:12:26;15.23;;;4.50;;
46322;SDS011;32044;52.386;13.278;2024-01-16T12:14:54;15.25;;;4.72;;
46322;SDS011;32044;52.386;13.278;2024-01-16T12:17:22;10.65;;;4.68;;
46322;SDS011;32044;52.386;13.278;2024-01-16T12:19:49;14.75;;;4.15;;
46322;SDS011;32044;52.386;13.278;2024-01-16T12:22:18;15.95;;;4.75;;
46322;SDS011;32044;52.386;13.278;2024-01-16T12:24:49;15.98;;;4.97;;
46322;SDS011;32044;52.386;13.278;2024-01-16T12:27:16;14.07;;;4.80;;
46322;SDS011;32044;52.386;13.278;2024-01-16T12:29:44;8.93;;;4.90;;
46322;SDS011;32044;52.386;13.278;2024-01-16T12:32:12;14.95;;;4.82;;
46322;SDS011;32044;52.386;13.278;2024-01-16T12:34:45;15.70;;;4.55;;
46322;SDS011;32044;52.386;13.278;2024-01-16T12:37:14;16.00;;;5.13;;
46322;SDS011;32044;52.386;13.278;2024-01-16T12:39:44;10.50;;;4.47;;
46322;SDS011;32044;52.386;13.278;2024-01-16T12:42:12;13.98;;;4.72;;
46322;SDS011;32044;52.386;13.278;2024-01-16T12:44:40;9.23;;;4.63;;
46322;SDS011;32044;52.386;13.278;2024-01-16T12:47:08;11.68;;;4.32;;
46322;SDS011;32044;52.386;13.278;2024-01-16T12:49:39;8.60;;;4.28;;
46322;SDS011;32044;52.386;13.278;2024-01-16T12:52:14;10.18;;;4.03;;
46322;SDS011;32044;52.386;13.278;2024-01-16T12:54:42;12.50;;;5.32;;
46322;SDS011;32044;52.386;13.278;2024-01-16T12:57:11;7.70;;;3.75;;
46322;SDS011;32044;52.386;13.278;2024-01-16T12:59:44;14.65;;;4.05;;
46322;SDS011;32044;52.386;13.278;2024-01-16T13:02:19;13.32;;;4.30;;
46322;SDS011;32044;52.386;13.278;2024-01-16T13:04:47;11.52;;;3.90;;
46322;SDS011;32044;52.386;13.278;2024-01-16T13:07:15;9.27;;;4.10;;
46322;SDS011;32044;52.386;13.278;2024-01-16T13:09:44;10.32;;;4.38;;
46322;SDS011;32044;52.386;13.278;2024-01-16T13:12:20;14.60;;;4.25;;
46322;SDS011;32044;52.386;13.278;2024-01-16T13:14:47;13.07;;;4.03;;
46322;SDS011;32044;52.386;13.278;2024-01-16T13:17:15;10.13;;;4.25;;
46322;SDS011;32044;52.386;13.278;2024-01-16T13:19:43;13.00;;;4.18;;
46322;SDS011;32044;52.386;13.278;2024-01-16T13:22:10;15.65;;;3.80;;
46322;SDS011;32044;52.386;13.278;2024-01-16T13:24:38;13.45;;;5.22;;
46322;SDS011;32044;52.386;13.278;2024-01-16T13:27:08;13.48;;;4.05;;
46322;SDS011;32044;52.386;13.278;2024-01-16T13:29:40;10.93;;;4.10;;
46322;SDS011;32044;52.386;13.278;2024-01-16T13:32:08;12.00;;;4.28;;
46322;SDS011;32044;52.386;13.278;2024-01-16T13:34:36;8.40;;;4.50;;
46322;SDS011;32044;52.386;13.278;2024-01-16T13:37:04;11.85;;;4.10;;
46322;SDS011;32044;52.386;13.278;2024-01-16T13:39:42;14.43;;;4.57;;
46322;SDS011;32044;52.386;13.278;2024-01-16T13:42:09;15.82;;;4.07;;
46322;SDS011;32044;52.386;13.278;2024-01-16T13:44:37;12.48;;;4.05;;
46322;SDS011;32044;52.386;13.278;2024-01-16T13:47:06;8.88;;;3.53;;
46322;SDS011;32044;52.386;13.278;2024-01-16T13:49:40;10.75;;;3.92;;
46322;SDS011;32044;52.386;13.278;2024-01-16T13:52:08;7.13;;;3.53;;
46322;SDS011;32044;52.386;13.278;2024-01-16T13:54:38;19.63;;;4.18;;
46322;SDS011;32044;52.386;13.278;2024-01-16T13:57:06;5.55;;;2.65;;
46322;SDS011;32044;52.386;13.278;2024-01-16T13:59:37;15.50;;;4.53;;
46322;SDS011;32044;52.386;13.278;2024-01-16T14:02:06;10.65;;;3.42;;
46322;SDS011;32044;52.386;13.278;2024-01-16T14:04:35;13.27;;;4.00;;
46322;SDS011;32044;52.386;13.278;2024-01-16T14:07:02;14.35;;;3.90;;
46322;SDS011;32044;52.386;13.278;2024-01-16T14:09:33;11.20;;;2.83;;
46322;SDS011;32044;52.386;13.278;2024-01-16T14:12:00;8.25;;;3.35;;
46322;SDS011;32044;52.386;13.278;2024-01-16T14:14:27;9.90;;;3.00;;
46322;SDS011;32044;52.386;13.278;2024-01-16T14:16:55;13.07;;;4.10;;
46322;SDS011;32044;52.386;13.278;2024-01-16T14:21:57;10.02;;;3.38;;
46322;SDS011;32044;52.386;13.278;2024-01-16T14:24:25;12.32;;;4.20;;
46322;SDS011;32044;52.386;13.278;2024-01-16T14:26:52;14.48;;;4.00;;
46322;SDS011;32044;52.386;13.278;2024-01-16T14:29:23;13.60;;;3.97;;
46322;SDS011;32044;52.386;13.278;2024-01-16T14:31:50;9.13;;;4.25;;
46322;SDS011;32044;52.386;13.278;2024-01-16T14:34:18;11.98;;;3.85;;
46322;SDS011;32044;52.386;13.278;2024-01-16T14:36:47;13.80;;;4.45;;
46322;SDS011;32044;52.386;13.278;2024-01-16T14:39:15;11.63;;;4.30;;
46322;SDS011;32044;52.386;13.278;2024-01-16T14:41:48;10.85;;;4.18;;
46322;SDS011;32044;52.386;13.278;2024-01-16T14:44:16;14.90;;;4.55;;
46322;SDS011;32044;52.386;13.278;2024-01-16T14:46:43;12.65;;;4.68;;
46322;SDS011;32044;52.386;13.278;2024-01-16T14:49:16;13.93;;;4.53;;